ซานฟรานซิสโก, CA

04:26 PM PST วัน กุมภาพันธ์ 09, 2016 (GMT -0800)
SOMA - Near Van Ness | | Change Station
CLOSE
Current Station
Personal Weather Stations
Location: San Francisco, CA
Elevation: 49 ft
Nearby Weather Stations
Active Advisory: Beach Hazard Statement Active Notice: Record Report

Elev 49 ft 37.77 °N, 122.42 °W | Updated 49 seconds ago

มีเมฆคลุมเป็นส่วนๆ
มีเมฆคลุมเป็นส่วนๆ
66.9 ฟาเรนไฮน์
Feels Like 66.9 ฟาเรนไฮน์
N
3.0
ลม ความผันแปร ลม from ทางทิศตะวันออกเฉียงเหนือ
Gusts 5.0 mph

วันนี้
High -- | Low -- ฟาเรนไฮน์
--% Chance of Precip.
Yesterday
High -- | Low -- ฟาเรนไฮน์
Precip. -- นิ้ว
ความดัน 30.15 นิ้ว
ทัศนวิสัย 10.0 ไมล์
เมฆ มีเมฆคลุมเป็นส่วนใหญ่ 20000 ft
อุณหภูมิที่อากาศอาจจับตัวเป็นหยาดน้ำค้าง 55 ฟาเรนไฮน์
ความชื้น 65%
Rainfall 0.00 นิ้ว
Snow Depth Not available.
7:06 AM 5:41 PM
เดือนเสี้ยว, 3% visible
METAR KSFO 092356Z 36005KT 10SM BKN200 18/11 A3015 RMK AO2 SLP208 T01780111 10217 20150 53001
ความดัน 30.15 นิ้ว
ทัศนวิสัย 10.0 ไมล์
เมฆ มีเมฆคลุมเป็นส่วนใหญ่ 20000 ft
อุณหภูมิที่อากาศอาจจับตัวเป็นหยาดน้ำค้าง 55 ฟาเรนไฮน์
ความชื้น 65%
Rainfall 0.00 นิ้ว
Snow Depth Not available.
7:06 AM 5:41 PM
เดือนเสี้ยว, 3% visible
METAR KSFO 092356Z 36005KT 10SM BKN200 18/11 A3015 RMK AO2 SLP208 T01780111 10217 20150 53001

10-Day Weather Forecast

Almanac

ดาราศาสตร์

Feb. 09, 2016 Rise Set
Actual Time
Civil Twilight
Nautical Twilight
Astronomical Twilight
Moon
Length Of Visible Light
ความยาวของวัน
Tomorrow will be .
, % of the Moon is Illuminated

Today's Extremes

State Highs State Lows

Community

WunderPhotos

Upload Photos

1,891,748 photos uploaded!

WunderBlog® & News

Nearby

Air Quality

  Air Quality AQ Index Pollutant
Not available.

Snow Depth

Station Depth Elevation

Earthquake Activity

City Distance Mag. Time & Date
Minimum magnitude displayed is 2.5.

Coastal Water Temperatures

สถานที่ อุณหภูมิ

Stations

Nearby Weather Stations

Station Location Temp ลมหนาว อุณหภูมิที่อากาศอาจจับตัวเป็นหยาดน้ำค้าง ความชื้น ลม Precip. Elev ปรับปรุงล่าสุด Type
                   

Watches & Warnings

Beach Hazard Statement
Issued: 12:48 PM PST Feb. 9, 2016 – National Weather Service

... Beach hazards statement remains in effect until 8 PM PST this
evening...

* waves... west to northwest swell 7 to 8 feet at 13 to 15
seconds. Offshore winds will allow for larger waves.

* Hazards... increased risk of rip currents and large shore
break.

* Timing... now through 8pm Tuesday.

* Location... coastline from Sonoma County south through Monterey
County.

Precautionary/preparedness actions...

A beach hazard statement for rip currents means that conditions
are present to support a heightened risk of strong rip currents.
Rip currents are typically more frequent and stronger in the
vicinity of jetties... inlets... and piers. Swimmers caught in a
rip current should swim parallel to the coast to escape the rip
current before trying to swim for shore. Swimmers should always
swim near a lifeguard.